Time;durP1;ratioP1;P1;durP2;ratioP2;P2;SDS_P1;SDS_P2;PMS_P1;PMS_P2;Temp;Humidity;BMP_temperature;BMP_pressure;BME280_temperature;BME280_humidity;BME280_pressure;Samples;Min_cycle;Max_cycle;Signal;HPM_P1;HPM_P2
2021/05/13 00:00:15;;;;;;;14.00;13.07;;;;;;;12.28;87.79;99918.28;5083504;28;20206;-76
2021/05/13 00:02:41;;;;;;;13.83;12.47;;;;;;;12.34;87.50;99923.28;5081751;28;20251;-74
2021/05/13 00:05:08;;;;;;;13.63;12.73;;;;;;;12.17;87.76;99920.38;5082335;28;20235;-74
2021/05/13 00:07:34;;;;;;;14.07;13.07;;;;;;;12.10;88.16;99914.53;5082201;28;20261;-75
2021/05/13 00:10:01;;;;;;;13.33;12.27;;;;;;;12.12;88.33;99917.94;5081730;28;20554;-76
2021/05/13 00:12:37;;;;;;;13.30;12.07;;;;;;;12.16;87.86;99913.47;5082765;28;20551;-75
2021/05/13 00:15:07;;;;;;;13.17;12.03;;;;;;;12.22;87.36;99903.63;5082272;28;20624;-76
2021/05/13 00:17:33;;;;;;;13.30;12.10;;;;;;;12.11;87.19;99909.25;5082436;28;20660;-76
2021/05/13 00:19:59;;;;;;;12.63;11.73;;;;;;;11.98;87.22;99904.47;5081368;28;20606;-75
2021/05/13 00:22:25;;;;;;;13.60;12.43;;;;;;;12.04;87.46;99906.88;5082659;28;20311;-75
2021/05/13 00:24:51;;;;;;;18.80;12.83;;;;;;;12.07;87.68;99901.53;5082724;28;20652;-75
2021/05/13 00:27:17;;;;;;;12.57;11.60;;;;;;;12.18;87.43;99894.19;5081262;28;20205;-74
2021/05/13 00:29:43;;;;;;;11.50;10.43;;;;;;;12.22;87.09;99889.69;5082534;28;20249;-74
2021/05/13 00:32:09;;;;;;;12.80;11.77;;;;;;;12.27;87.14;99893.03;5082159;28;20300;-75
2021/05/13 00:34:35;;;;;;;11.90;11.17;;;;;;;12.33;86.70;99892.81;5081067;28;20240;-74
2021/05/13 00:37:01;;;;;;;10.70;10.00;;;;;;;12.35;86.77;99890.13;5082414;28;20216;-76
2021/05/13 00:39:27;;;;;;;12.73;11.93;;;;;;;12.36;86.13;99890.06;5081682;28;20313;-76
2021/05/13 00:41:53;;;;;;;11.53;10.53;;;;;;;12.27;86.26;99890.41;5082734;28;20208;-76
2021/05/13 00:44:19;;;;;;;12.77;11.77;;;;;;;12.12;86.80;99883.94;5081751;28;20266;-75
2021/05/13 00:46:45;;;;;;;13.13;12.03;;;;;;;12.07;86.90;99885.84;5081864;28;20217;-75
2021/05/13 00:49:11;;;;;;;13.60;12.70;;;;;;;11.89;87.47;99882.06;5082100;28;20280;-75
2021/05/13 00:51:38;;;;;;;14.33;13.27;;;;;;;11.67;88.08;99884.50;5081007;28;20231;-76
2021/05/13 00:54:05;;;;;;;15.23;14.13;;;;;;;11.57;88.63;99883.94;5081763;28;20207;-74
2021/05/13 00:56:32;;;;;;;14.73;13.63;;;;;;;11.42;89.41;99885.31;5081938;28;20281;-75
2021/05/13 00:59:03;;;;;;;16.80;15.40;;;;;;;11.34;90.34;99887.31;5082839;28;20274;-75
2021/05/13 01:01:39;;;;;;;15.83;14.83;;;;;;;11.32;90.64;99889.13;5086812;28;20210;-78
2021/05/13 01:04:06;;;;;;;17.57;16.10;;;;;;;11.20;91.10;99889.47;5087512;28;20200;-78
2021/05/13 01:06:32;;;;;;;16.83;15.53;;;;;;;11.17;91.31;99881.75;5088151;28;20650;-79
2021/05/13 01:08:58;;;;;;;17.17;15.83;;;;;;;11.20;91.52;99887.72;5087919;28;20234;-78
2021/05/13 01:11:23;;;;;;;17.33;16.07;;;;;;;11.21;91.42;99892.03;5087838;28;20376;-77
2021/05/13 01:13:53;;;;;;;16.80;15.50;;;;;;;11.22;91.58;99890.28;5087178;28;20254;-78
2021/05/13 01:16:26;;;;;;;17.07;15.73;;;;;;;11.22;91.45;99893.75;5088598;28;20206;-78
2021/05/13 01:18:53;;;;;;;16.70;15.43;;;;;;;11.31;91.28;99893.47;5087612;28;20232;-76
2021/05/13 01:21:20;;;;;;;16.27;15.03;;;;;;;11.23;91.26;99894.59;5087548;28;20227;-77
2021/05/13 01:23:46;;;;;;;17.20;15.87;;;;;;;11.05;91.19;99896.03;5087944;28;20220;-78
2021/05/13 01:26:14;;;;;;;16.90;15.50;;;;;;;10.89;92.30;99893.00;5087021;28;20204;-78
2021/05/13 01:28:40;;;;;;;18.37;16.87;;;;;;;10.88;92.57;99893.88;5087266;28;20238;-77
2021/05/13 01:31:06;;;;;;;17.67;16.27;;;;;;;10.89;92.72;99890.41;5087291;28;20232;-76
2021/05/13 01:33:32;;;;;;;18.07;16.47;;;;;;;10.83;92.89;99891.41;5087190;28;20664;-79
2021/05/13 01:35:58;;;;;;;16.87;15.67;;;;;;;10.90;92.86;99885.13;5087587;28;20339;-78
2021/05/13 01:38:25;;;;;;;16.83;15.43;;;;;;;10.96;92.59;99884.09;5087153;28;20318;-78
2021/05/13 01:40:52;;;;;;;15.77;14.67;;;;;;;10.98;92.39;99889.25;5088015;28;20212;-77
2021/05/13 01:43:19;;;;;;;15.97;14.67;;;;;;;10.99;92.18;99880.53;5087394;28;20210;-77
2021/05/13 01:45:45;;;;;;;15.37;14.13;;;;;;;10.99;92.20;99881.38;5087788;28;20637;-79
2021/05/13 01:48:11;;;;;;;13.93;13.03;;;;;;;11.03;92.18;99864.72;5085967;28;20254;-78
2021/05/13 01:50:37;;;;;;;15.27;14.27;;;;;;;11.05;91.70;99875.97;5086116;28;20231;-79
2021/05/13 01:53:05;;;;;;;13.93;12.90;;;;;;;11.10;91.74;99873.25;5087067;28;20273;-79
2021/05/13 01:55:32;;;;;;;13.67;12.67;;;;;;;11.08;91.31;99870.66;5087023;28;20232;-78
2021/05/13 01:57:57;;;;;;;13.13;12.13;;;;;;;11.21;91.24;99865.06;5087899;28;20529;-79
2021/05/13 02:00:24;;;;;;;13.50;11.67;;;;;;;11.21;90.88;99868.53;5085315;28;20216;-75
2021/05/13 02:02:50;;;;;;;15.57;11.80;;;;;;;11.33;90.75;99867.28;5084244;28;20193;-76
2021/05/13 02:05:17;;;;;;;11.57;10.77;;;;;;;11.42;90.37;99867.00;5084636;28;20204;-75
2021/05/13 02:07:43;;;;;;;11.20;10.37;;;;;;;11.45;90.04;99868.66;5084953;28;20257;-75
2021/05/13 02:10:10;;;;;;;11.93;10.93;;;;;;;11.55;89.83;99861.38;5084061;28;20270;-75
2021/05/13 02:12:37;;;;;;;10.70;9.77;;;;;;;11.55;89.28;99851.78;5084270;28;20994;-75
2021/05/13 02:15:06;;;;;;;10.23;9.40;;;;;;;11.39;88.77;99864.47;5084673;28;20227;-75
2021/05/13 02:17:32;;;;;;;11.23;10.23;;;;;;;11.25;89.40;99854.47;5084374;28;20269;-75
2021/05/13 02:19:57;;;;;;;11.67;10.73;;;;;;;11.03;89.96;99856.88;5083766;28;20207;-75
2021/05/13 02:22:23;;;;;;;12.77;11.47;;;;;;;11.05;90.23;99849.84;5084954;28;20205;-75
2021/05/13 02:24:49;;;;;;;11.63;10.63;;;;;;;11.19;90.08;99851.19;5084658;28;20224;-76
2021/05/13 02:27:15;;;;;;;10.50;9.77;;;;;;;11.30;89.98;99855.19;5084477;28;20583;-75
2021/05/13 02:29:42;;;;;;;11.13;10.33;;;;;;;11.33;89.64;99851.63;5084987;28;20292;-76
2021/05/13 02:32:08;;;;;;;10.37;9.50;;;;;;;11.29;89.24;99852.63;5083992;28;20722;-76
2021/05/13 02:34:34;;;;;;;10.27;9.47;;;;;;;11.30;89.37;99852.56;5084243;28;20331;-76
2021/05/13 02:36:59;;;;;;;10.33;9.43;;;;;;;11.32;89.38;99844.69;5083751;28;20293;-76
2021/05/13 02:39:25;;;;;;;9.87;8.97;;;;;;;11.35;89.23;99852.41;5084089;28;20228;-74
2021/05/13 02:41:51;;;;;;;10.10;9.40;;;;;;;11.29;88.81;99850.84;5084460;28;20634;-76
2021/05/13 02:44:17;;;;;;;9.93;9.20;;;;;;;11.37;88.73;99853.22;5083482;28;20246;-75
2021/05/13 02:46:44;;;;;;;9.30;8.50;;;;;;;11.43;88.45;99839.13;5084143;28;20299;-75
2021/05/13 02:49:10;;;;;;;9.13;8.40;;;;;;;11.40;88.03;99847.06;5083695;28;20229;-75
2021/05/13 02:51:35;;;;;;;9.33;8.63;;;;;;;11.42;87.78;99838.28;5082757;28;20240;-75
2021/05/13 02:54:02;;;;;;;8.43;7.73;;;;;;;11.38;87.41;99841.00;5083821;28;20204;-76
2021/05/13 02:56:28;;;;;;;9.20;8.37;;;;;;;11.38;87.00;99831.44;5084017;28;20266;-76
2021/05/13 02:58:54;;;;;;;8.90;8.20;;;;;;;11.41;86.90;99830.47;5084025;28;20910;-75
2021/05/13 03:01:24;;;;;;;8.27;7.67;;;;;;;11.39;87.05;99833.13;5084242;28;20287;-76
2021/05/13 03:03:52;;;;;;;8.30;7.50;;;;;;;11.35;87.23;99834.13;5083392;28;20212;-76
2021/05/13 03:06:18;;;;;;;8.63;7.90;;;;;;;11.39;87.41;99824.44;5084061;28;20224;-77
2021/05/13 03:08:44;;;;;;;8.70;7.90;;;;;;;11.40;87.58;99832.25;5083402;28;20456;-74
2021/05/13 03:11:10;;;;;;;8.77;8.10;;;;;;;11.39;87.30;99832.28;5083794;28;20291;-75
2021/05/13 03:13:37;;;;;;;9.73;7.43;;;;;;;11.28;87.18;99835.25;5083460;28;20245;-75
2021/05/13 03:16:03;;;;;;;8.00;7.13;;;;;;;11.19;87.33;99828.53;5083450;28;20592;-76
2021/05/13 03:18:32;;;;;;;8.47;7.67;;;;;;;11.28;86.95;99830.03;5083800;28;20695;-75
2021/05/13 03:21:03;;;;;;;8.33;7.53;;;;;;;11.35;87.34;99826.28;5083062;28;20249;-76
2021/05/13 03:23:37;;;;;;;7.00;6.50;;;;;;;11.38;87.28;99820.09;5083478;28;20717;-75
2021/05/13 03:26:03;;;;;;;7.33;6.60;;;;;;;11.44;86.95;99812.94;5082546;28;20231;-75
2021/05/13 03:28:29;;;;;;;7.97;7.17;;;;;;;11.18;86.90;99813.78;5083806;28;20690;-76
2021/05/13 03:30:55;;;;;;;7.87;7.23;;;;;;;10.91;88.10;99810.25;5083672;28;20242;-75
2021/05/13 03:33:21;;;;;;;9.10;8.30;;;;;;;10.79;88.49;99810.63;5083423;28;20208;-77
2021/05/13 03:35:47;;;;;;;8.30;7.50;;;;;;;10.66;88.82;99813.63;5085001;28;20209;-78
2021/05/13 03:38:14;;;;;;;8.60;7.80;;;;;;;10.61;89.14;99807.66;5084157;28;20617;-79
2021/05/13 03:40:40;;;;;;;9.67;8.03;;;;;;;10.69;89.55;99807.44;5084886;28;20478;-77
2021/05/13 03:43:06;;;;;;;10.30;7.70;;;;;;;10.69;89.14;99810.06;5084739;28;20216;-79
2021/05/13 03:45:33;;;;;;;10.43;7.47;;;;;;;10.81;89.49;99804.47;5084534;28;20244;-78
2021/05/13 03:48:02;;;;;;;8.40;7.60;;;;;;;10.76;89.20;99801.13;5084879;28;20516;-77
2021/05/13 03:50:28;;;;;;;7.63;6.93;;;;;;;10.53;89.36;99807.88;5084138;28;20702;-77
2021/05/13 03:52:54;;;;;;;7.93;7.10;;;;;;;10.38;90.16;99800.47;5084213;28;20224;-77
2021/05/13 03:55:21;;;;;;;9.00;8.20;;;;;;;10.29;90.44;99800.72;5084538;28;20720;-77
2021/05/13 03:57:47;;;;;;;8.77;7.90;;;;;;;10.23;91.11;99799.16;5084114;28;20227;-79
2021/05/13 04:00:14;;;;;;;9.30;8.37;;;;;;;10.18;91.59;99806.22;5084484;28;20214;-78
2021/05/13 04:02:41;;;;;;;9.53;8.63;;;;;;;10.16;91.73;99805.41;5083251;28;20257;-77
2021/05/13 04:05:09;;;;;;;11.37;8.60;;;;;;;10.22;91.92;99799.19;5084508;28;20208;-77
2021/05/13 04:07:37;;;;;;;9.67;8.67;;;;;;;10.18;91.95;99798.41;5083848;28;20222;-78
2021/05/13 04:10:05;;;;;;;10.43;9.20;;;;;;;10.20;91.98;99794.00;5083969;28;20742;-78
2021/05/13 04:12:32;;;;;;;9.47;8.67;;;;;;;10.12;91.93;99791.59;5083656;28;20259;-78
2021/05/13 04:14:59;;;;;;;9.07;8.27;;;;;;;10.09;92.22;99781.28;5083398;28;20228;-77
2021/05/13 04:17:25;;;;;;;11.77;9.47;;;;;;;10.03;92.67;99776.22;5083747;28;20216;-78
2021/05/13 04:19:50;;;;;;;10.07;9.23;;;;;;;10.04;92.53;99772.72;5083070;28;20204;-79
2021/05/13 04:22:16;;;;;;;10.53;9.27;;;;;;;10.04;92.88;99777.06;5084273;28;20460;-78
2021/05/13 04:24:42;;;;;;;10.90;8.53;;;;;;;10.08;92.79;99769.13;5083325;28;20298;-79
2021/05/13 04:27:08;;;;;;;11.40;8.70;;;;;;;10.14;93.15;99768.94;5083798;28;20204;-77
2021/05/13 04:29:35;;;;;;;11.10;9.10;;;;;;;10.15;92.68;99769.81;5084506;28;20235;-79
2021/05/13 04:32:02;;;;;;;10.80;9.87;;;;;;;10.18;92.75;99771.47;5083281;28;20730;-78
2021/05/13 04:34:28;;;;;;;10.90;9.33;;;;;;;10.15;92.35;99769.81;5083144;28;20230;-78
2021/05/13 04:36:54;;;;;;;10.27;9.00;;;;;;;10.16;92.60;99768.91;5083614;28;20211;-78
2021/05/13 04:39:19;;;;;;;9.80;8.53;;;;;;;10.10;92.77;99763.88;5084041;28;20305;-78
2021/05/13 04:41:45;;;;;;;9.43;8.60;;;;;;;10.08;92.77;99756.06;5083285;28;20208;-78
2021/05/13 04:44:11;;;;;;;9.83;8.77;;;;;;;10.12;92.77;99762.06;5083812;28;20613;-78
2021/05/13 04:46:38;;;;;;;9.90;9.03;;;;;;;10.17;92.79;99760.19;5083400;28;20314;-78
2021/05/13 04:49:17;;;;;;;8.80;8.10;;;;;;;10.16;92.55;99755.88;5083349;28;20315;-77
2021/05/13 04:51:46;;;;;;;9.60;8.70;;;;;;;10.22;92.58;99754.84;5083016;28;20240;-76
2021/05/13 04:54:13;;;;;;;8.83;8.07;;;;;;;10.18;92.49;99748.84;5084165;28;20202;-78
2021/05/13 04:56:39;;;;;;;8.47;7.87;;;;;;;10.21;92.09;99751.38;5083150;28;20360;-78
2021/05/13 04:59:05;;;;;;;9.60;8.60;;;;;;;10.29;92.02;99744.19;5083878;28;20233;-78
2021/05/13 05:01:31;;;;;;;7.90;7.10;;;;;;;10.28;91.28;99736.41;5083939;28;20294;-79
2021/05/13 05:03:58;;;;;;;8.37;7.63;;;;;;;10.26;91.15;99730.38;5083072;28;20204;-79
2021/05/13 05:06:24;;;;;;;7.70;6.90;;;;;;;10.25;90.41;99731.28;5083651;28;20587;-77
2021/05/13 05:08:50;;;;;;;7.10;6.20;;;;;;;10.17;90.64;99738.47;5082558;28;20225;-78
2021/05/13 05:11:17;;;;;;;7.63;5.67;;;;;;;10.19;89.96;99737.53;5082571;28;20210;-78
2021/05/13 05:13:42;;;;;;;9.10;6.23;;;;;;;10.16;89.95;99736.75;5079904;28;20751;-78
2021/05/13 05:16:08;;;;;;;6.93;6.07;;;;;;;10.16;90.22;99734.16;5081663;28;20265;-78
2021/05/13 05:18:34;;;;;;;7.40;5.70;;;;;;;10.11;89.82;99734.31;5081596;28;20231;-77
2021/05/13 05:21:01;;;;;;;6.70;5.93;;;;;;;10.11;90.09;99729.94;5080799;28;20205;-77
2021/05/13 05:23:29;;;;;;;6.47;5.73;;;;;;;10.08;89.63;99732.59;5081550;28;20200;-78
2021/05/13 05:25:56;;;;;;;6.43;5.83;;;;;;;10.11;90.10;99737.75;5081172;28;20211;-78
2021/05/13 05:28:22;;;;;;;6.33;5.47;;;;;;;10.06;90.01;99736.16;5081227;28;20735;-76
2021/05/13 05:30:48;;;;;;;7.00;6.00;;;;;;;10.14;90.17;99739.41;5082476;28;20238;-78
2021/05/13 05:33:14;;;;;;;9.50;5.40;;;;;;;10.30;89.67;99729.41;5080885;28;20219;-76
2021/05/13 05:35:40;;;;;;;6.43;5.50;;;;;;;10.33;89.06;99729.34;5081971;28;20688;-77
2021/05/13 05:38:08;;;;;;;5.97;4.73;;;;;;;10.28;87.91;99726.81;5081524;28;20228;-77
2021/05/13 05:40:35;;;;;;;5.23;4.73;;;;;;;10.22;88.16;99720.94;5081710;28;20250;-77
2021/05/13 05:43:01;;;;;;;5.43;4.93;;;;;;;10.29;88.41;99715.50;5081428;28;20270;-77
2021/05/13 05:45:27;;;;;;;9.57;5.40;;;;;;;10.45;88.32;99718.53;5082169;28;20651;-78
2021/05/13 05:47:59;;;;;;;9.87;4.93;;;;;;;10.53;87.97;99715.69;5085235;28;20644;-78
2021/05/13 05:50:25;;;;;;;6.47;4.20;;;;;;;10.70;86.43;99709.94;5085271;28;20280;-76
2021/05/13 05:52:51;;;;;;;4.87;4.47;;;;;;;10.86;86.18;99719.03;5084406;28;20233;-78
2021/05/13 05:55:18;;;;;;;6.60;4.20;;;;;;;10.78;85.56;99712.31;5085774;28;20767;-78
2021/05/13 05:57:44;;;;;;;6.93;4.33;;;;;;;10.76;85.63;99707.13;5085183;28;20239;-78
2021/05/13 06:00:11;;;;;;;6.87;3.63;;;;;;;10.66;84.83;99719.66;5085095;28;20255;-76
2021/05/13 06:02:37;;;;;;;5.40;4.00;;;;;;;10.71;85.24;99707.28;5085179;28;20662;-76
2021/05/13 06:05:03;;;;;;;5.90;4.40;;;;;;;10.77;84.87;99713.25;5085223;28;20234;-78
2021/05/13 06:07:29;;;;;;;8.70;4.50;;;;;;;10.79;85.04;99709.66;5084712;28;20247;-76
2021/05/13 06:09:55;;;;;;;9.10;5.47;;;;;;;10.80;85.99;99707.91;5085436;28;20295;-79
2021/05/13 06:12:22;;;;;;;5.17;4.63;;;;;;;10.76;86.04;99706.28;5085280;28;20886;-78
2021/05/13 06:14:48;;;;;;;6.43;5.00;;;;;;;10.86;85.32;99705.09;5084034;28;20209;-78
2021/05/13 06:17:14;;;;;;;6.10;4.30;;;;;;;10.86;84.28;99708.59;5084625;28;20208;-76
2021/05/13 06:19:40;;;;;;;6.82;4.40;;;;;;;10.98;83.46;99704.72;5083456;28;20472;-77
2021/05/13 06:22:06;;;;;;;5.07;4.00;;;;;;;10.94;83.50;99708.31;5084450;28;20202;-78
2021/05/13 06:24:32;;;;;;;6.43;4.30;;;;;;;10.93;83.51;99702.25;5084044;28;20287;-76
2021/05/13 06:26:59;;;;;;;6.13;3.93;;;;;;;11.02;82.89;99705.44;5084819;28;20300;-75
2021/05/13 06:29:27;;;;;;;6.50;4.40;;;;;;;10.98;82.66;99707.34;5085201;28;20270;-78
2021/05/13 06:31:53;;;;;;;5.07;3.87;;;;;;;11.10;82.53;99709.53;5084315;28;20287;-77
2021/05/13 06:34:19;;;;;;;5.57;3.37;;;;;;;11.02;81.45;99700.22;5084163;28;20208;-76
2021/05/13 06:36:45;;;;;;;7.20;4.47;;;;;;;11.04;80.70;99703.66;5084266;28;20277;-77
2021/05/13 06:39:11;;;;;;;5.53;4.80;;;;;;;10.99;81.23;99708.19;5084461;28;20906;-77
2021/05/13 06:41:38;;;;;;;4.70;3.17;;;;;;;10.93;81.01;99697.03;5084677;28;20228;-76
2021/05/13 06:44:05;;;;;;;5.27;3.53;;;;;;;11.11;81.23;99702.56;5084076;28;20243;-77
2021/05/13 06:46:32;;;;;;;4.70;3.43;;;;;;;11.09;80.64;99702.59;5084446;28;20657;-78
2021/05/13 06:48:58;;;;;;;4.90;3.67;;;;;;;11.29;80.92;99708.91;5083864;28;20228;-77
2021/05/13 06:51:24;;;;;;;5.63;4.53;;;;;;;11.33;80.76;99716.59;5081326;28;20248;-76
2021/05/13 06:53:50;;;;;;;4.73;3.30;;;;;;;11.33;80.91;99706.13;5083694;28;20299;-76
2021/05/13 06:56:16;;;;;;;4.00;3.17;;;;;;;11.31;81.70;99705.34;5083115;28;20242;-79
2021/05/13 06:58:43;;;;;;;4.23;3.20;;;;;;;11.56;81.13;99709.75;5084030;28;20341;-78
2021/05/13 07:01:08;;;;;;;4.27;3.70;;;;;;;11.65;80.24;99714.63;5083767;28;20792;-77
2021/05/13 07:03:35;;;;;;;6.67;3.60;;;;;;;11.36;79.37;99712.16;5083532;28;20296;-76
2021/05/13 07:06:01;;;;;;;5.03;3.97;;;;;;;11.54;78.93;99701.09;5084326;28;20235;-78
2021/05/13 07:08:28;;;;;;;5.77;3.80;;;;;;;11.58;79.58;99704.47;5083410;28;20225;-77
2021/05/13 07:10:54;;;;;;;8.90;3.57;;;;;;;11.66;78.90;99705.91;5084213;28;20285;-75
2021/05/13 07:13:20;;;;;;;5.37;2.83;;;;;;;11.73;78.53;99696.06;5083008;28;20224;-78
2021/05/13 07:15:46;;;;;;;6.27;3.33;;;;;;;11.86;78.74;99701.72;5083547;28;20240;-78
2021/05/13 07:18:13;;;;;;;4.83;3.40;;;;;;;11.78;77.69;99698.53;5083824;28;20959;-78
2021/05/13 07:20:40;;;;;;;4.77;2.90;;;;;;;11.86;77.76;99699.94;5083458;28;20212;-78
2021/05/13 07:23:06;;;;;;;4.17;3.00;;;;;;;11.97;77.90;99709.19;5083170;28;20209;-78
2021/05/13 07:25:32;;;;;;;3.80;3.47;;;;;;;11.99;76.13;99699.53;5082911;28;20264;-77
2021/05/13 07:27:59;;;;;;;4.13;2.93;;;;;;;12.08;76.51;99697.44;5083715;28;20288;-79
2021/05/13 07:30:25;;;;;;;4.83;2.67;;;;;;;12.23;75.32;99698.63;5082668;28;20233;-77
2021/05/13 07:32:51;;;;;;;6.40;3.10;;;;;;;12.40;76.30;99702.38;5082683;28;20260;-78
2021/05/13 07:35:18;;;;;;;4.27;2.83;;;;;;;12.58;74.93;99696.41;5083473;28;20214;-77
2021/05/13 07:37:44;;;;;;;6.10;3.20;;;;;;;12.58;75.39;99699.03;5082511;28;20228;-77
2021/05/13 07:40:11;;;;;;;3.13;2.53;;;;;;;12.38;74.17;99705.03;5083859;28;20232;-78
2021/05/13 07:42:37;;;;;;;4.00;3.00;;;;;;;12.51;73.56;99694.97;5082904;28;20263;-76
2021/05/13 07:45:06;;;;;;;3.60;2.47;;;;;;;12.54;72.78;99697.44;5082936;28;20200;-77
2021/05/13 07:47:37;;;;;;;4.53;2.67;;;;;;;12.55;72.55;99698.28;5082660;28;20407;-77
2021/05/13 07:50:04;;;;;;;7.20;3.17;;;;;;;12.24;72.39;99702.94;5083017;28;20649;-77
2021/05/13 07:52:29;;;;;;;3.60;2.40;;;;;;;12.27;73.61;99707.22;5082102;28;20255;-78
2021/05/13 07:54:56;;;;;;;4.67;2.30;;;;;;;12.51;71.90;99692.34;5082081;28;20204;-75
2021/05/13 07:57:22;;;;;;;2.63;2.10;;;;;;;12.58;72.23;99696.41;5083985;28;21216;-76
2021/05/13 07:59:48;;;;;;;3.00;2.23;;;;;;;12.62;70.69;99694.53;5083978;28;20221;-78
2021/05/13 08:02:14;;;;;;;5.00;2.70;;;;;;;12.64;71.61;99696.16;5083536;28;20882;-77
2021/05/13 08:04:39;;;;;;;2.27;1.80;;;;;;;12.54;69.76;99700.06;5082213;28;20209;-75
2021/05/13 08:07:05;;;;;;;2.40;1.77;;;;;;;12.79;70.82;99699.97;5081881;28;20613;-76
2021/05/13 08:09:31;;;;;;;3.57;2.10;;;;;;;12.79;69.27;99688.63;5081808;28;20256;-75
2021/05/13 08:11:58;;;;;;;3.60;2.03;;;;;;;12.79;67.80;99699.97;5082416;28;20223;-77
2021/05/13 08:14:24;;;;;;;2.93;2.07;;;;;;;12.89;68.80;99695.22;5081754;28;20272;-77
2021/05/13 08:16:50;;;;;;;2.20;1.83;;;;;;;13.10;69.51;99698.69;5082676;28;20751;-76
2021/05/13 08:19:16;;;;;;;3.07;2.53;;;;;;;13.34;70.09;99688.13;5082091;28;20229;-74
2021/05/13 08:21:41;;;;;;;4.23;2.80;;;;;;;13.08;68.83;99696.16;5080829;28;20202;-76
2021/05/13 08:24:07;;;;;;;3.63;2.30;;;;;;;13.05;69.79;99695.44;5081261;28;20221;-75
2021/05/13 08:26:33;;;;;;;2.20;1.77;;;;;;;13.28;68.52;99697.09;5082669;28;20738;-77
2021/05/13 08:29:00;;;;;;;5.87;2.23;;;;;;;13.49;68.45;99683.09;5081523;28;20221;-77
2021/05/13 08:31:26;;;;;;;2.00;1.57;;;;;;;13.47;66.71;99681.47;5081494;28;20211;-77
2021/05/13 08:33:52;;;;;;;3.10;2.00;;;;;;;13.54;67.46;99679.41;5082395;28;20629;-76
2021/05/13 08:36:18;;;;;;;5.10;2.33;;;;;;;13.49;66.74;99685.72;4379750;28;10000818;-75
2021/05/13 08:38:44;;;;;;;4.70;2.10;;;;;;;13.51;66.29;99681.25;5080636;28;20231;-77
2021/05/13 08:41:11;;;;;;;5.00;2.07;;;;;;;13.40;69.30;99685.25;5082370;28;20233;-74
2021/05/13 08:43:37;;;;;;;3.83;1.30;;;;;;;13.43;63.96;99678.13;5081717;28;20223;-76
2021/05/13 08:46:04;;;;;;;2.47;1.50;;;;;;;13.35;64.81;99677.59;5082603;28;21463;-77
2021/05/13 08:48:30;;;;;;;3.07;1.63;;;;;;;13.52;64.89;99682.13;5082657;28;20283;-77
2021/05/13 08:50:56;;;;;;;2.70;1.47;;;;;;;13.70;64.78;99669.97;5082854;28;20697;-76
2021/05/13 08:53:23;;;;;;;5.37;1.50;;;;;;;13.84;63.49;99674.63;5082622;28;20264;-76
2021/05/13 08:55:48;;;;;;;2.77;1.50;;;;;;;13.77;62.41;99675.78;5082471;28;20699;-74
2021/05/13 08:58:14;;;;;;;2.77;1.40;;;;;;;13.70;64.57;99675.22;5083068;28;20217;-76
2021/05/13 09:00:50;;;;;;;3.87;1.90;;;;;;;13.76;63.77;99668.88;5082125;28;20236;-76
2021/05/13 09:03:31;;;;;;;5.17;1.50;;;;;;;13.89;63.43;99670.88;5082678;28;20354;-76
2021/05/13 09:05:57;;;;;;;1.73;1.30;;;;;;;13.95;62.74;99667.09;5082451;28;20206;-75
2021/05/13 09:08:23;;;;;;;3.03;1.53;;;;;;;13.92;64.46;99662.00;5082381;28;20234;-77
2021/05/13 09:10:50;;;;;;;2.90;1.60;;;;;;;14.08;64.80;99663.00;5082500;28;20216;-76
2021/05/13 09:13:26;;;;;;;3.30;1.63;;;;;;;14.19;63.68;99661.66;5081352;28;20256;-75
2021/05/13 09:15:52;;;;;;;4.43;1.60;;;;;;;14.28;63.53;99664.69;5082435;28;20219;-78
2021/05/13 09:18:30;;;;;;;3.20;2.27;;;;;;;14.13;62.67;99661.94;5082015;28;20251;-76
2021/05/13 09:21:03;;;;;;;2.23;1.23;;;;;;;14.05;62.33;99662.28;5085320;28;20209;-79
2021/05/13 09:23:29;;;;;;;1.40;1.00;;;;;;;14.13;61.35;99664.56;5085391;28;20321;-77
2021/05/13 09:26:07;;;;;;;3.53;1.33;;;;;;;14.11;62.80;99662.00;5085234;28;20575;-77
2021/05/13 09:28:33;;;;;;;2.40;1.40;;;;;;;14.11;63.89;99662.00;5086349;28;20225;-76
2021/05/13 09:30:59;;;;;;;3.87;1.40;;;;;;;14.06;63.08;99664.00;5085844;28;20247;-77
2021/05/13 09:33:28;;;;;;;3.60;1.60;;;;;;;14.09;64.21;99662.09;5085773;28;20310;-77
2021/05/13 09:35:54;;;;;;;41.83;7.33;;;;;;;14.18;64.90;99662.59;5086115;28;20205;-77
2021/05/13 09:38:31;;;;;;;2.03;1.43;;;;;;;14.44;64.53;99658.72;5084853;28;20426;-77
2021/05/13 09:40:57;;;;;;;2.43;1.50;;;;;;;14.50;62.96;99656.66;5086238;28;20582;-76
2021/05/13 09:43:24;;;;;;;2.37;1.27;;;;;;;14.42;62.03;99650.06;5085007;28;20255;-77
2021/05/13 09:45:51;;;;;;;5.40;1.43;;;;;;;14.46;61.71;99654.25;5085281;28;20237;-77
2021/05/13 09:48:35;;;;;;;3.27;1.47;;;;;;;14.55;60.65;99650.31;5085482;28;20233;-77
2021/05/13 09:51:22;;;;;;;2.67;1.10;;;;;;;14.44;61.64;99649.06;5085247;28;20244;-77
2021/05/13 09:53:49;;;;;;;3.20;1.57;;;;;;;14.43;61.81;99646.50;5084680;28;20235;-77
2021/05/13 09:56:26;;;;;;;2.10;1.00;;;;;;;14.52;61.99;99653.97;5084883;28;20209;-76
2021/05/13 09:58:51;;;;;;;2.07;0.90;;;;;;;14.63;60.34;99653.50;5086139;28;20231;-77
2021/05/13 10:01:18;;;;;;;2.97;1.60;;;;;;;14.53;59.84;99653.06;5084592;28;20202;-78
2021/05/13 10:03:44;;;;;;;2.20;1.00;;;;;;;14.47;60.20;99651.56;5084709;28;20273;-76
2021/05/13 10:06:11;;;;;;;2.30;1.13;;;;;;;14.41;60.02;99645.72;5085149;28;20210;-77
2021/05/13 10:08:38;;;;;;;1.03;1.03;;;;;;;14.57;59.70;99648.50;5083323;28;20234;-76
2021/05/13 10:11:05;;;;;;;4.27;1.37;;;;;;;14.80;59.22;99644.78;5085187;28;20500;-77
2021/05/13 10:13:32;;;;;;;1.73;1.10;;;;;;;14.84;58.61;99641.91;5083881;28;20257;-78
2021/05/13 10:15:59;;;;;;;3.10;1.07;;;;;;;14.67;57.44;99636.66;5083022;28;20204;-77
2021/05/13 10:18:28;;;;;;;2.87;1.20;;;;;;;14.90;59.43;99646.00;5083518;28;20225;-77
2021/05/13 10:20:58;;;;;;;2.10;0.87;;;;;;;14.91;55.87;99636.38;5084176;28;20270;-76
2021/05/13 10:23:25;;;;;;;1.80;1.30;;;;;;;15.14;58.46;99640.47;5084083;28;20594;-77
2021/05/13 10:25:52;;;;;;;1.57;1.20;;;;;;;15.30;55.89;99636.09;5084117;28;20206;-77
2021/05/13 10:28:27;;;;;;;1.40;0.60;;;;;;;15.41;55.39;99639.03;5084407;28;20248;-78
2021/05/13 10:30:59;;;;;;;2.37;1.03;;;;;;;15.31;53.91;99624.69;5083471;28;20254;-77
2021/05/13 10:33:25;;;;;;;1.97;1.00;;;;;;;15.33;54.49;99628.06;5083601;28;20250;-77
2021/05/13 10:36:01;;;;;;;2.80;1.27;;;;;;;15.44;55.01;99631.00;5083612;28;20676;-77
2021/05/13 10:38:45;;;;;;;1.33;0.83;;;;;;;15.55;55.91;99622.53;5083671;28;20230;-76
2021/05/13 10:41:39;;;;;;;1.87;1.07;;;;;;;15.44;54.61;99627.50;5082940;28;20259;-78
2021/05/13 10:44:33;;;;;;;2.43;1.80;;;;;;;15.54;53.86;99627.88;5073296;28;20697;-78
2021/05/13 10:46:58;;;;;;;2.70;1.80;;;;;;;15.32;52.73;99622.88;5083375;28;20249;-77
2021/05/13 10:49:26;;;;;;;2.67;1.30;;;;;;;15.49;54.20;99618.44;5082456;28;20320;-77
2021/05/13 10:51:53;;;;;;;2.33;1.30;;;;;;;15.49;54.65;99617.59;5083366;28;20207;-77
2021/05/13 10:54:44;;;;;;;2.93;1.40;;;;;;;15.61;54.67;99613.47;5082343;28;20238;-77
2021/05/13 10:57:13;;;;;;;2.93;1.30;;;;;;;15.52;53.28;99616.59;5083922;28;20214;-77
2021/05/13 10:59:39;;;;;;;4.33;1.10;;;;;;;15.52;52.97;99614.84;5083957;28;20206;-76
2021/05/13 11:02:05;;;;;;;1.53;0.70;;;;;;;15.51;53.95;99615.75;5083333;28;20209;-76
2021/05/13 11:04:35;;;;;;;3.70;0.73;;;;;;;15.65;53.17;99610.59;5083123;28;20619;-76
2021/05/13 11:07:04;;;;;;;1.00;0.60;;;;;;;15.64;51.14;99611.53;5083154;28;20330;-77
2021/05/13 11:09:53;;;;;;;1.53;0.80;;;;;;;15.38;51.98;99617.31;5083211;28;20588;-75
2021/05/13 11:12:21;;;;;;;1.63;0.80;;;;;;;15.32;53.99;99615.00;5084288;28;20223;-76
2021/05/13 11:15:10;;;;;;;1.13;0.80;;;;;;;15.48;54.33;99600.16;5083385;28;20227;-77
2021/05/13 11:18:07;;;;;;;1.40;0.90;;;;;;;15.65;54.18;99601.88;5082752;28;20313;-76
2021/05/13 11:20:36;;;;;;;3.00;0.80;;;;;;;15.78;54.24;99607.38;5083547;28;20206;-77
2021/05/13 11:23:05;;;;;;;1.37;0.70;;;;;;;15.92;52.93;99598.72;5084000;28;20685;-78
2021/05/13 11:25:42;;;;;;;3.20;0.97;;;;;;;16.02;52.63;99599.91;5083278;28;20267;-78
2021/05/13 11:28:24;;;;;;;1.67;1.03;;;;;;;16.20;51.28;99592.78;5083777;28;20291;-78
2021/05/13 11:30:52;;;;;;;2.27;0.90;;;;;;;16.56;51.20;99604.81;5083101;28;20218;-78